sensor_id;sensor_type;location;lat;lon;timestamp;P1;durP1;ratioP1;P2;durP2;ratioP2
59512;SDS011;45330;51.634;5.562;2023-11-21T00:00:33;37.28;;;18.85;;
59512;SDS011;45330;51.634;5.562;2023-11-21T00:02:58;36.17;;;18.60;;
59512;SDS011;45330;51.634;5.562;2023-11-21T00:05:24;42.70;;;18.90;;
59512;SDS011;45330;51.634;5.562;2023-11-21T00:07:49;37.72;;;19.02;;
59512;SDS011;45330;51.634;5.562;2023-11-21T00:10:16;36.13;;;18.08;;
59512;SDS011;45330;51.634;5.562;2023-11-21T00:12:41;36.40;;;19.30;;
59512;SDS011;45330;51.634;5.562;2023-11-21T00:15:07;41.38;;;19.35;;
59512;SDS011;45330;51.634;5.562;2023-11-21T00:17:36;36.65;;;19.20;;
59512;SDS011;45330;51.634;5.562;2023-11-21T00:20:02;39.63;;;19.33;;
59512;SDS011;45330;51.634;5.562;2023-11-21T00:22:31;41.47;;;19.92;;
59512;SDS011;45330;51.634;5.562;2023-11-21T00:24:57;37.30;;;19.08;;
59512;SDS011;45330;51.634;5.562;2023-11-21T00:27:23;37.08;;;19.00;;
59512;SDS011;45330;51.634;5.562;2023-11-21T00:29:48;40.38;;;20.13;;
59512;SDS011;45330;51.634;5.562;2023-11-21T00:32:13;38.28;;;19.88;;
59512;SDS011;45330;51.634;5.562;2023-11-21T00:34:39;36.33;;;19.17;;
59512;SDS011;45330;51.634;5.562;2023-11-21T00:37:05;36.42;;;18.45;;
59512;SDS011;45330;51.634;5.562;2023-11-21T00:39:30;36.85;;;18.85;;
59512;SDS011;45330;51.634;5.562;2023-11-21T00:41:55;43.30;;;20.60;;
59512;SDS011;45330;51.634;5.562;2023-11-21T00:44:21;40.75;;;20.55;;
59512;SDS011;45330;51.634;5.562;2023-11-21T00:46:46;39.72;;;19.38;;
59512;SDS011;45330;51.634;5.562;2023-11-21T00:49:12;42.08;;;19.92;;
59512;SDS011;45330;51.634;5.562;2023-11-21T00:51:38;41.53;;;19.85;;
59512;SDS011;45330;51.634;5.562;2023-11-21T00:54:03;37.50;;;18.45;;
59512;SDS011;45330;51.634;5.562;2023-11-21T00:56:29;37.80;;;19.42;;
59512;SDS011;45330;51.634;5.562;2023-11-21T00:58:54;39.97;;;19.98;;
59512;SDS011;45330;51.634;5.562;2023-11-21T01:01:20;37.88;;;19.30;;
59512;SDS011;45330;51.634;5.562;2023-11-21T01:03:49;38.00;;;19.70;;
59512;SDS011;45330;51.634;5.562;2023-11-21T01:06:15;40.72;;;21.15;;
59512;SDS011;45330;51.634;5.562;2023-11-21T01:08:40;38.97;;;19.85;;
59512;SDS011;45330;51.634;5.562;2023-11-21T01:11:06;38.95;;;19.75;;
59512;SDS011;45330;51.634;5.562;2023-11-21T01:13:37;43.75;;;20.38;;
59512;SDS011;45330;51.634;5.562;2023-11-21T01:16:04;45.10;;;21.45;;
59512;SDS011;45330;51.634;5.562;2023-11-21T01:18:31;43.35;;;21.17;;
59512;SDS011;45330;51.634;5.562;2023-11-21T01:20:56;44.33;;;21.00;;
59512;SDS011;45330;51.634;5.562;2023-11-21T01:23:22;41.38;;;19.80;;
59512;SDS011;45330;51.634;5.562;2023-11-21T01:25:48;42.28;;;21.48;;
59512;SDS011;45330;51.634;5.562;2023-11-21T01:28:13;41.72;;;21.33;;
59512;SDS011;45330;51.634;5.562;2023-11-21T01:30:38;42.80;;;21.50;;
59512;SDS011;45330;51.634;5.562;2023-11-21T01:33:04;41.58;;;20.95;;
59512;SDS011;45330;51.634;5.562;2023-11-21T01:35:29;40.05;;;20.65;;
59512;SDS011;45330;51.634;5.562;2023-11-21T01:37:55;41.72;;;20.05;;
59512;SDS011;45330;51.634;5.562;2023-11-21T01:40:20;43.33;;;20.23;;
59512;SDS011;45330;51.634;5.562;2023-11-21T01:42:46;41.13;;;20.58;;
59512;SDS011;45330;51.634;5.562;2023-11-21T01:45:12;43.92;;;20.25;;
59512;SDS011;45330;51.634;5.562;2023-11-21T01:47:38;38.42;;;19.67;;
59512;SDS011;45330;51.634;5.562;2023-11-21T01:50:06;36.60;;;19.38;;
59512;SDS011;45330;51.634;5.562;2023-11-21T01:52:33;38.40;;;19.38;;
59512;SDS011;45330;51.634;5.562;2023-11-21T01:55:00;40.72;;;19.52;;
59512;SDS011;45330;51.634;5.562;2023-11-21T01:57:27;41.15;;;18.95;;
59512;SDS011;45330;51.634;5.562;2023-11-21T01:59:54;36.45;;;19.00;;
59512;SDS011;45330;51.634;5.562;2023-11-21T02:02:19;38.35;;;18.63;;
59512;SDS011;45330;51.634;5.562;2023-11-21T02:04:45;39.53;;;19.27;;
59512;SDS011;45330;51.634;5.562;2023-11-21T02:07:10;42.00;;;19.65;;
59512;SDS011;45330;51.634;5.562;2023-11-21T02:09:36;48.30;;;20.65;;
59512;SDS011;45330;51.634;5.562;2023-11-21T02:12:07;61.50;;;22.65;;
59512;SDS011;45330;51.634;5.562;2023-11-21T02:14:34;57.60;;;21.63;;
59512;SDS011;45330;51.634;5.562;2023-11-21T02:16:59;80.50;;;23.40;;
59512;SDS011;45330;51.634;5.562;2023-11-21T02:19:26;93.20;;;25.55;;
59512;SDS011;45330;51.634;5.562;2023-11-21T02:21:52;81.03;;;24.13;;
59512;SDS011;45330;51.634;5.562;2023-11-21T02:24:20;73.70;;;24.00;;
59512;SDS011;45330;51.634;5.562;2023-11-21T02:26:47;74.28;;;26.73;;
59512;SDS011;45330;51.634;5.562;2023-11-21T02:29:13;95.53;;;25.20;;
59512;SDS011;45330;51.634;5.562;2023-11-21T02:31:41;82.13;;;25.38;;
59512;SDS011;45330;51.634;5.562;2023-11-21T02:34:16;88.13;;;25.77;;
59512;SDS011;45330;51.634;5.562;2023-11-21T02:36:42;85.80;;;25.50;;
59512;SDS011;45330;51.634;5.562;2023-11-21T02:39:09;91.03;;;25.40;;
59512;SDS011;45330;51.634;5.562;2023-11-21T02:41:35;79.68;;;25.00;;
59512;SDS011;45330;51.634;5.562;2023-11-21T02:44:02;82.05;;;25.35;;
59512;SDS011;45330;51.634;5.562;2023-11-21T02:46:27;67.88;;;24.23;;
59512;SDS011;45330;51.634;5.562;2023-11-21T02:48:52;68.40;;;23.55;;
59512;SDS011;45330;51.634;5.562;2023-11-21T02:51:22;82.05;;;24.83;;
59512;SDS011;45330;51.634;5.562;2023-11-21T02:53:48;83.70;;;24.15;;
59512;SDS011;45330;51.634;5.562;2023-11-21T02:56:13;102.53;;;25.77;;
59512;SDS011;45330;51.634;5.562;2023-11-21T02:58:41;54.70;;;22.75;;
59512;SDS011;45330;51.634;5.562;2023-11-21T03:01:09;50.67;;;22.48;;
59512;SDS011;45330;51.634;5.562;2023-11-21T03:03:34;54.40;;;22.80;;
59512;SDS011;45330;51.634;5.562;2023-11-21T03:06:02;57.33;;;21.30;;
59512;SDS011;45330;51.634;5.562;2023-11-21T03:08:28;59.05;;;22.38;;
59512;SDS011;45330;51.634;5.562;2023-11-21T03:10:53;68.53;;;24.40;;
59512;SDS011;45330;51.634;5.562;2023-11-21T03:13:18;57.72;;;22.77;;
59512;SDS011;45330;51.634;5.562;2023-11-21T03:15:44;43.80;;;21.98;;
59512;SDS011;45330;51.634;5.562;2023-11-21T03:18:09;44.03;;;21.77;;
59512;SDS011;45330;51.634;5.562;2023-11-21T03:20:35;43.53;;;21.70;;
59512;SDS011;45330;51.634;5.562;2023-11-21T03:23:01;50.45;;;21.73;;
59512;SDS011;45330;51.634;5.562;2023-11-21T03:25:26;44.03;;;21.00;;
59512;SDS011;45330;51.634;5.562;2023-11-21T03:27:52;44.42;;;21.08;;
59512;SDS011;45330;51.634;5.562;2023-11-21T03:30:18;44.58;;;22.05;;
59512;SDS011;45330;51.634;5.562;2023-11-21T03:32:43;46.30;;;21.45;;
59512;SDS011;45330;51.634;5.562;2023-11-21T03:35:09;44.88;;;21.48;;
59512;SDS011;45330;51.634;5.562;2023-11-21T03:37:34;42.80;;;21.20;;
59512;SDS011;45330;51.634;5.562;2023-11-21T03:40:00;42.15;;;21.17;;
59512;SDS011;45330;51.634;5.562;2023-11-21T03:42:25;44.33;;;20.95;;
59512;SDS011;45330;51.634;5.562;2023-11-21T03:44:51;44.88;;;21.95;;
59512;SDS011;45330;51.634;5.562;2023-11-21T03:47:17;42.78;;;21.20;;
59512;SDS011;45330;51.634;5.562;2023-11-21T03:49:42;45.78;;;20.27;;
59512;SDS011;45330;51.634;5.562;2023-11-21T03:52:07;39.80;;;20.27;;
59512;SDS011;45330;51.634;5.562;2023-11-21T03:54:34;38.15;;;20.63;;
59512;SDS011;45330;51.634;5.562;2023-11-21T03:56:59;55.00;;;23.13;;
59512;SDS011;45330;51.634;5.562;2023-11-21T03:59:24;44.72;;;21.42;;
59512;SDS011;45330;51.634;5.562;2023-11-21T04:01:50;40.00;;;21.02;;
59512;SDS011;45330;51.634;5.562;2023-11-21T04:04:16;44.72;;;21.80;;
59512;SDS011;45330;51.634;5.562;2023-11-21T04:06:41;40.78;;;20.77;;
59512;SDS011;45330;51.634;5.562;2023-11-21T04:09:06;42.92;;;22.13;;
59512;SDS011;45330;51.634;5.562;2023-11-21T04:11:32;42.10;;;21.20;;
59512;SDS011;45330;51.634;5.562;2023-11-21T04:13:57;41.70;;;21.33;;
59512;SDS011;45330;51.634;5.562;2023-11-21T04:16:22;42.80;;;20.67;;
59512;SDS011;45330;51.634;5.562;2023-11-21T04:18:48;43.00;;;21.90;;
59512;SDS011;45330;51.634;5.562;2023-11-21T04:21:13;39.17;;;20.70;;
59512;SDS011;45330;51.634;5.562;2023-11-21T04:23:39;41.20;;;21.17;;
59512;SDS011;45330;51.634;5.562;2023-11-21T04:26:05;41.35;;;21.25;;
59512;SDS011;45330;51.634;5.562;2023-11-21T04:28:30;40.97;;;20.55;;
59512;SDS011;45330;51.634;5.562;2023-11-21T04:30:57;45.25;;;21.42;;
59512;SDS011;45330;51.634;5.562;2023-11-21T04:33:22;43.08;;;21.15;;
59512;SDS011;45330;51.634;5.562;2023-11-21T04:35:48;42.83;;;21.40;;
59512;SDS011;45330;51.634;5.562;2023-11-21T04:38:13;45.92;;;21.58;;
59512;SDS011;45330;51.634;5.562;2023-11-21T04:40:39;43.00;;;21.45;;
59512;SDS011;45330;51.634;5.562;2023-11-21T04:43:04;41.60;;;20.38;;
59512;SDS011;45330;51.634;5.562;2023-11-21T04:45:30;37.80;;;20.30;;
59512;SDS011;45330;51.634;5.562;2023-11-21T04:47:55;45.25;;;20.73;;
59512;SDS011;45330;51.634;5.562;2023-11-21T04:50:21;44.70;;;20.95;;
59512;SDS011;45330;51.634;5.562;2023-11-21T04:52:46;44.90;;;19.70;;
59512;SDS011;45330;51.634;5.562;2023-11-21T04:55:12;38.10;;;19.58;;
59512;SDS011;45330;51.634;5.562;2023-11-21T04:57:37;38.15;;;19.63;;
59512;SDS011;45330;51.634;5.562;2023-11-21T05:00:03;41.42;;;18.92;;
59512;SDS011;45330;51.634;5.562;2023-11-21T05:02:31;35.80;;;18.75;;
59512;SDS011;45330;51.634;5.562;2023-11-21T05:05:00;34.17;;;18.55;;
59512;SDS011;45330;51.634;5.562;2023-11-21T05:07:25;33.83;;;18.45;;
59512;SDS011;45330;51.634;5.562;2023-11-21T05:09:53;36.20;;;18.35;;
59512;SDS011;45330;51.634;5.562;2023-11-21T05:12:21;33.83;;;18.75;;
59512;SDS011;45330;51.634;5.562;2023-11-21T05:14:48;34.35;;;19.55;;
59512;SDS011;45330;51.634;5.562;2023-11-21T05:17:14;34.80;;;18.95;;
59512;SDS011;45330;51.634;5.562;2023-11-21T05:19:39;32.55;;;18.60;;
59512;SDS011;45330;51.634;5.562;2023-11-21T05:22:05;37.13;;;18.30;;
59512;SDS011;45330;51.634;5.562;2023-11-21T05:24:31;34.85;;;18.98;;
59512;SDS011;45330;51.634;5.562;2023-11-21T05:26:56;34.85;;;18.50;;
59512;SDS011;45330;51.634;5.562;2023-11-21T05:29:22;34.60;;;19.25;;
59512;SDS011;45330;51.634;5.562;2023-11-21T05:31:48;32.88;;;18.33;;
59512;SDS011;45330;51.634;5.562;2023-11-21T05:34:14;33.30;;;18.20;;
59512;SDS011;45330;51.634;5.562;2023-11-21T05:36:42;31.80;;;18.58;;
59512;SDS011;45330;51.634;5.562;2023-11-21T05:39:08;33.70;;;18.48;;
59512;SDS011;45330;51.634;5.562;2023-11-21T05:41:33;32.13;;;18.25;;
59512;SDS011;45330;51.634;5.562;2023-11-21T05:43:59;32.72;;;18.90;;
59512;SDS011;45330;51.634;5.562;2023-11-21T05:46:24;31.73;;;19.02;;
59512;SDS011;45330;51.634;5.562;2023-11-21T05:48:50;30.92;;;18.40;;
59512;SDS011;45330;51.634;5.562;2023-11-21T05:51:15;32.20;;;18.25;;
59512;SDS011;45330;51.634;5.562;2023-11-21T05:53:41;32.70;;;18.75;;
59512;SDS011;45330;51.634;5.562;2023-11-21T05:56:06;32.70;;;18.80;;
59512;SDS011;45330;51.634;5.562;2023-11-21T05:58:32;32.38;;;20.73;;
59512;SDS011;45330;51.634;5.562;2023-11-21T06:00:57;34.65;;;20.45;;
59512;SDS011;45330;51.634;5.562;2023-11-21T06:03:23;32.42;;;19.70;;
59512;SDS011;45330;51.634;5.562;2023-11-21T06:05:48;33.35;;;20.38;;
59512;SDS011;45330;51.634;5.562;2023-11-21T06:08:13;32.10;;;18.95;;
59512;SDS011;45330;51.634;5.562;2023-11-21T06:10:41;34.33;;;19.67;;
59512;SDS011;45330;51.634;5.562;2023-11-21T06:13:07;32.20;;;20.38;;
59512;SDS011;45330;51.634;5.562;2023-11-21T06:15:33;31.25;;;19.45;;
59512;SDS011;45330;51.634;5.562;2023-11-21T06:17:59;33.88;;;19.65;;
59512;SDS011;45330;51.634;5.562;2023-11-21T06:20:24;33.50;;;19.33;;
59512;SDS011;45330;51.634;5.562;2023-11-21T06:22:50;36.42;;;20.63;;
59512;SDS011;45330;51.634;5.562;2023-11-21T06:25:16;37.55;;;21.73;;
59512;SDS011;45330;51.634;5.562;2023-11-21T06:27:46;34.50;;;19.80;;
59512;SDS011;45330;51.634;5.562;2023-11-21T06:30:13;35.30;;;20.57;;
59512;SDS011;45330;51.634;5.562;2023-11-21T06:32:40;33.95;;;20.58;;
59512;SDS011;45330;51.634;5.562;2023-11-21T06:35:06;35.58;;;20.67;;
59512;SDS011;45330;51.634;5.562;2023-11-21T06:37:33;33.13;;;20.10;;
59512;SDS011;45330;51.634;5.562;2023-11-21T06:39:59;35.53;;;20.77;;
59512;SDS011;45330;51.634;5.562;2023-11-21T06:42:25;34.85;;;20.48;;
59512;SDS011;45330;51.634;5.562;2023-11-21T06:44:51;34.72;;;20.85;;
59512;SDS011;45330;51.634;5.562;2023-11-21T06:47:18;36.28;;;20.40;;
59512;SDS011;45330;51.634;5.562;2023-11-21T06:49:47;35.05;;;20.95;;
59512;SDS011;45330;51.634;5.562;2023-11-21T06:52:15;37.20;;;21.15;;
59512;SDS011;45330;51.634;5.562;2023-11-21T06:54:40;36.03;;;20.45;;
59512;SDS011;45330;51.634;5.562;2023-11-21T06:57:06;37.05;;;21.30;;
59512;SDS011;45330;51.634;5.562;2023-11-21T06:59:31;38.63;;;21.35;;
59512;SDS011;45330;51.634;5.562;2023-11-21T07:01:57;37.35;;;20.63;;
59512;SDS011;45330;51.634;5.562;2023-11-21T07:04:22;37.85;;;20.20;;
59512;SDS011;45330;51.634;5.562;2023-11-21T07:06:47;36.85;;;20.42;;
59512;SDS011;45330;51.634;5.562;2023-11-21T07:09:13;37.88;;;21.75;;
59512;SDS011;45330;51.634;5.562;2023-11-21T07:11:38;36.33;;;20.38;;
59512;SDS011;45330;51.634;5.562;2023-11-21T07:14:04;37.00;;;19.58;;
59512;SDS011;45330;51.634;5.562;2023-11-21T07:16:35;40.72;;;20.88;;
59512;SDS011;45330;51.634;5.562;2023-11-21T07:19:03;38.53;;;20.88;;
59512;SDS011;45330;51.634;5.562;2023-11-21T07:21:31;37.83;;;20.65;;
59512;SDS011;45330;51.634;5.562;2023-11-21T07:24:00;41.88;;;22.33;;
59512;SDS011;45330;51.634;5.562;2023-11-21T07:26:26;38.45;;;20.30;;
59512;SDS011;45330;51.634;5.562;2023-11-21T07:28:52;44.10;;;23.10;;
59512;SDS011;45330;51.634;5.562;2023-11-21T07:31:17;41.15;;;21.42;;
59512;SDS011;45330;51.634;5.562;2023-11-21T07:33:44;40.33;;;21.77;;
59512;SDS011;45330;51.634;5.562;2023-11-21T07:36:12;39.85;;;20.88;;
59512;SDS011;45330;51.634;5.562;2023-11-21T07:38:37;41.67;;;21.58;;
59512;SDS011;45330;51.634;5.562;2023-11-21T07:41:03;41.30;;;22.45;;
59512;SDS011;45330;51.634;5.562;2023-11-21T07:43:28;44.85;;;22.67;;
59512;SDS011;45330;51.634;5.562;2023-11-21T07:46:00;43.05;;;22.17;;
59512;SDS011;45330;51.634;5.562;2023-11-21T07:48:27;42.00;;;22.33;;
59512;SDS011;45330;51.634;5.562;2023-11-21T07:50:53;41.00;;;22.35;;
59512;SDS011;45330;51.634;5.562;2023-11-21T07:53:18;43.35;;;21.95;;
59512;SDS011;45330;51.634;5.562;2023-11-21T07:55:44;39.72;;;21.17;;
59512;SDS011;45330;51.634;5.562;2023-11-21T07:58:10;44.28;;;21.60;;
59512;SDS011;45330;51.634;5.562;2023-11-21T08:00:37;42.35;;;21.75;;
59512;SDS011;45330;51.634;5.562;2023-11-21T08:03:04;42.13;;;20.73;;
59512;SDS011;45330;51.634;5.562;2023-11-21T08:05:30;42.88;;;22.85;;
59512;SDS011;45330;51.634;5.562;2023-11-21T08:07:56;40.40;;;21.55;;
59512;SDS011;45330;51.634;5.562;2023-11-21T08:10:21;45.70;;;22.67;;
59512;SDS011;45330;51.634;5.562;2023-11-21T08:12:47;42.75;;;22.38;;
59512;SDS011;45330;51.634;5.562;2023-11-21T08:15:13;43.90;;;22.35;;
59512;SDS011;45330;51.634;5.562;2023-11-21T08:17:39;43.03;;;22.25;;
59512;SDS011;45330;51.634;5.562;2023-11-21T08:20:05;44.35;;;22.75;;
59512;SDS011;45330;51.634;5.562;2023-11-21T08:22:31;47.10;;;23.67;;
59512;SDS011;45330;51.634;5.562;2023-11-21T08:24:57;46.13;;;23.48;;
59512;SDS011;45330;51.634;5.562;2023-11-21T08:27:23;47.58;;;23.92;;
59512;SDS011;45330;51.634;5.562;2023-11-21T08:29:48;42.20;;;22.38;;
59512;SDS011;45330;51.634;5.562;2023-11-21T08:32:14;43.95;;;21.88;;
59512;SDS011;45330;51.634;5.562;2023-11-21T08:34:40;45.60;;;23.38;;
59512;SDS011;45330;51.634;5.562;2023-11-21T08:37:08;45.78;;;22.35;;
59512;SDS011;45330;51.634;5.562;2023-11-21T08:39:33;45.85;;;23.13;;
59512;SDS011;45330;51.634;5.562;2023-11-21T08:41:58;45.03;;;22.65;;
59512;SDS011;45330;51.634;5.562;2023-11-21T08:44:24;47.08;;;23.48;;
59512;SDS011;45330;51.634;5.562;2023-11-21T08:46:50;41.22;;;22.63;;
59512;SDS011;45330;51.634;5.562;2023-11-21T08:49:15;42.38;;;22.27;;
59512;SDS011;45330;51.634;5.562;2023-11-21T08:51:40;48.33;;;23.45;;
59512;SDS011;45330;51.634;5.562;2023-11-21T08:54:06;44.45;;;22.88;;
59512;SDS011;45330;51.634;5.562;2023-11-21T08:56:33;44.90;;;22.50;;
59512;SDS011;45330;51.634;5.562;2023-11-21T08:58:59;47.60;;;23.42;;
59512;SDS011;45330;51.634;5.562;2023-11-21T09:01:30;47.72;;;23.45;;
59512;SDS011;45330;51.634;5.562;2023-11-21T09:03:57;50.10;;;24.85;;
59512;SDS011;45330;51.634;5.562;2023-11-21T09:06:23;52.65;;;24.02;;
59512;SDS011;45330;51.634;5.562;2023-11-21T09:08:49;49.25;;;24.70;;
59512;SDS011;45330;51.634;5.562;2023-11-21T09:11:14;52.95;;;25.15;;
59512;SDS011;45330;51.634;5.562;2023-11-21T09:13:40;54.95;;;24.60;;
59512;SDS011;45330;51.634;5.562;2023-11-21T09:16:05;55.25;;;26.30;;
59512;SDS011;45330;51.634;5.562;2023-11-21T09:18:31;54.13;;;26.67;;
59512;SDS011;45330;51.634;5.562;2023-11-21T09:20:56;53.90;;;26.13;;
59512;SDS011;45330;51.634;5.562;2023-11-21T09:23:22;51.67;;;24.42;;
59512;SDS011;45330;51.634;5.562;2023-11-21T09:25:47;51.90;;;24.58;;
59512;SDS011;45330;51.634;5.562;2023-11-21T09:28:15;49.33;;;24.20;;
59512;SDS011;45330;51.634;5.562;2023-11-21T09:30:40;54.90;;;23.88;;
59512;SDS011;45330;51.634;5.562;2023-11-21T09:33:06;61.45;;;25.63;;
59512;SDS011;45330;51.634;5.562;2023-11-21T09:35:31;61.25;;;25.90;;
59512;SDS011;45330;51.634;5.562;2023-11-21T09:37:57;56.75;;;25.23;;
59512;SDS011;45330;51.634;5.562;2023-11-21T09:40:22;55.95;;;25.70;;
59512;SDS011;45330;51.634;5.562;2023-11-21T09:42:55;52.13;;;24.60;;
59512;SDS011;45330;51.634;5.562;2023-11-21T09:45:25;58.35;;;26.42;;
59512;SDS011;45330;51.634;5.562;2023-11-21T09:47:56;57.47;;;23.90;;
59512;SDS011;45330;51.634;5.562;2023-11-21T09:50:22;53.83;;;25.08;;
59512;SDS011;45330;51.634;5.562;2023-11-21T09:55:45;56.60;;;26.23;;
59512;SDS011;45330;51.634;5.562;2023-11-21T09:58:11;63.05;;;26.15;;
59512;SDS011;45330;51.634;5.562;2023-11-21T10:00:42;60.88;;;26.48;;
59512;SDS011;45330;51.634;5.562;2023-11-21T10:03:09;53.03;;;26.40;;
59512;SDS011;45330;51.634;5.562;2023-11-21T10:05:36;57.83;;;25.45;;
59512;SDS011;45330;51.634;5.562;2023-11-21T10:08:03;58.97;;;27.33;;
59512;SDS011;45330;51.634;5.562;2023-11-21T10:10:32;57.63;;;26.45;;
59512;SDS011;45330;51.634;5.562;2023-11-21T10:12:57;58.17;;;25.42;;
59512;SDS011;45330;51.634;5.562;2023-11-21T10:15:28;59.00;;;26.55;;
59512;SDS011;45330;51.634;5.562;2023-11-21T10:17:55;60.35;;;25.08;;
59512;SDS011;45330;51.634;5.562;2023-11-21T10:20:21;55.05;;;26.08;;
59512;SDS011;45330;51.634;5.562;2023-11-21T10:22:49;60.75;;;25.90;;
59512;SDS011;45330;51.634;5.562;2023-11-21T10:25:15;56.67;;;25.20;;
59512;SDS011;45330;51.634;5.562;2023-11-21T10:27:41;56.97;;;25.77;;
59512;SDS011;45330;51.634;5.562;2023-11-21T10:30:08;54.97;;;25.38;;
59512;SDS011;45330;51.634;5.562;2023-11-21T10:32:37;58.67;;;26.25;;
59512;SDS011;45330;51.634;5.562;2023-11-21T10:35:03;54.13;;;26.33;;
59512;SDS011;45330;51.634;5.562;2023-11-21T10:37:38;48.75;;;25.15;;
59512;SDS011;45330;51.634;5.562;2023-11-21T10:40:07;57.38;;;26.05;;
59512;SDS011;45330;51.634;5.562;2023-11-21T10:42:40;54.50;;;25.13;;
59512;SDS011;45330;51.634;5.562;2023-11-21T10:45:09;57.78;;;26.55;;
59512;SDS011;45330;51.634;5.562;2023-11-21T10:47:43;57.38;;;26.77;;
59512;SDS011;45330;51.634;5.562;2023-11-21T10:50:09;56.92;;;26.48;;
59512;SDS011;45330;51.634;5.562;2023-11-21T10:52:41;58.65;;;25.70;;
59512;SDS011;45330;51.634;5.562;2023-11-21T10:55:18;53.15;;;25.58;;
59512;SDS011;45330;51.634;5.562;2023-11-21T10:57:50;52.67;;;25.67;;
59512;SDS011;45330;51.634;5.562;2023-11-21T11:00:18;53.25;;;24.88;;
59512;SDS011;45330;51.634;5.562;2023-11-21T11:02:51;43.95;;;22.33;;
59512;SDS011;45330;51.634;5.562;2023-11-21T11:05:19;38.95;;;21.67;;
59512;SDS011;45330;51.634;5.562;2023-11-21T11:07:45;39.28;;;20.45;;
59512;SDS011;45330;51.634;5.562;2023-11-21T11:10:13;37.67;;;18.58;;
59512;SDS011;45330;51.634;5.562;2023-11-21T11:12:40;39.58;;;19.00;;
59512;SDS011;45330;51.634;5.562;2023-11-21T11:15:06;39.92;;;19.92;;
59512;SDS011;45330;51.634;5.562;2023-11-21T11:17:35;35.58;;;18.00;;
59512;SDS011;45330;51.634;5.562;2023-11-21T11:20:03;35.50;;;17.63;;
59512;SDS011;45330;51.634;5.562;2023-11-21T11:22:37;35.35;;;17.90;;
59512;SDS011;45330;51.634;5.562;2023-11-21T11:25:12;36.80;;;18.30;;
59512;SDS011;45330;51.634;5.562;2023-11-21T11:33:48;36.45;;;18.17;;
59512;SDS011;45330;51.634;5.562;2023-11-21T11:36:37;33.03;;;17.48;;
59512;SDS011;45330;51.634;5.562;2023-11-21T11:39:28;30.73;;;16.05;;
59512;SDS011;45330;51.634;5.562;2023-11-21T11:41:57;26.67;;;13.23;;
59512;SDS011;45330;51.634;5.562;2023-11-21T11:45:08;25.45;;;12.90;;
59512;SDS011;45330;51.634;5.562;2023-11-21T11:47:20;31.77;;;14.73;;
59512;SDS011;45330;51.634;5.562;2023-11-21T11:55:36;27.30;;;12.98;;
59512;SDS011;45330;51.634;5.562;2023-11-21T11:58:04;26.55;;;12.70;;
59512;SDS011;45330;51.634;5.562;2023-11-21T12:00:34;27.95;;;13.23;;
59512;SDS011;45330;51.634;5.562;2023-11-21T12:03:05;28.40;;;13.25;;
59512;SDS011;45330;51.634;5.562;2023-11-21T12:05:32;27.15;;;13.70;;
59512;SDS011;45330;51.634;5.562;2023-11-21T12:08:04;29.85;;;14.82;;
59512;SDS011;45330;51.634;5.562;2023-11-21T12:10:35;30.27;;;14.75;;
59512;SDS011;45330;51.634;5.562;2023-11-21T12:13:11;30.42;;;16.50;;
59512;SDS011;45330;51.634;5.562;2023-11-21T12:15:40;30.63;;;15.23;;
59512;SDS011;45330;51.634;5.562;2023-11-21T12:18:06;31.83;;;16.40;;
59512;SDS011;45330;51.634;5.562;2023-11-21T12:20:32;33.42;;;17.60;;
59512;SDS011;45330;51.634;5.562;2023-11-21T12:23:03;34.60;;;17.27;;
59512;SDS011;45330;51.634;5.562;2023-11-21T12:25:30;37.50;;;18.02;;
59512;SDS011;45330;51.634;5.562;2023-11-21T12:28:00;34.53;;;17.25;;
59512;SDS011;45330;51.634;5.562;2023-11-21T12:30:29;37.20;;;17.80;;
59512;SDS011;45330;51.634;5.562;2023-11-21T12:33:00;35.92;;;17.88;;
59512;SDS011;45330;51.634;5.562;2023-11-21T12:35:29;36.97;;;18.55;;
59512;SDS011;45330;51.634;5.562;2023-11-21T12:38:00;37.28;;;17.42;;
59512;SDS011;45330;51.634;5.562;2023-11-21T12:40:30;38.78;;;19.42;;
59512;SDS011;45330;51.634;5.562;2023-11-21T12:42:56;37.60;;;19.48;;
59512;SDS011;45330;51.634;5.562;2023-11-21T12:45:27;38.47;;;21.63;;
59512;SDS011;45330;51.634;5.562;2023-11-21T12:48:00;38.38;;;21.30;;
59512;SDS011;45330;51.634;5.562;2023-11-21T12:50:32;42.78;;;19.80;;
59512;SDS011;45330;51.634;5.562;2023-11-21T12:52:59;38.60;;;21.88;;
59512;SDS011;45330;51.634;5.562;2023-11-21T12:55:29;36.15;;;18.27;;
59512;SDS011;45330;51.634;5.562;2023-11-21T12:57:55;36.67;;;18.38;;
59512;SDS011;45330;51.634;5.562;2023-11-21T13:00:28;38.40;;;20.70;;
59512;SDS011;45330;51.634;5.562;2023-11-21T13:02:57;39.58;;;20.27;;
59512;SDS011;45330;51.634;5.562;2023-11-21T13:05:27;40.75;;;19.42;;
59512;SDS011;45330;51.634;5.562;2023-11-21T13:07:58;39.22;;;19.63;;
59512;SDS011;45330;51.634;5.562;2023-11-21T13:10:27;36.75;;;19.33;;
59512;SDS011;45330;51.634;5.562;2023-11-21T13:12:58;40.13;;;20.15;;
59512;SDS011;45330;51.634;5.562;2023-11-21T13:15:25;39.90;;;19.27;;
59512;SDS011;45330;51.634;5.562;2023-11-21T13:17:51;37.03;;;19.90;;
59512;SDS011;45330;51.634;5.562;2023-11-21T13:20:18;40.38;;;21.10;;
59512;SDS011;45330;51.634;5.562;2023-11-21T13:22:52;38.30;;;18.73;;
59512;SDS011;45330;51.634;5.562;2023-11-21T13:25:23;38.80;;;19.05;;
59512;SDS011;45330;51.634;5.562;2023-11-21T13:27:49;40.20;;;19.08;;
59512;SDS011;45330;51.634;5.562;2023-11-21T13:30:15;40.10;;;20.65;;
59512;SDS011;45330;51.634;5.562;2023-11-21T13:32:44;38.58;;;19.13;;
59512;SDS011;45330;51.634;5.562;2023-11-21T13:35:16;37.80;;;18.73;;
59512;SDS011;45330;51.634;5.562;2023-11-21T13:37:55;38.35;;;19.02;;
59512;SDS011;45330;51.634;5.562;2023-11-21T13:40:24;36.58;;;19.27;;
59512;SDS011;45330;51.634;5.562;2023-11-21T13:42:55;39.45;;;18.98;;
59512;SDS011;45330;51.634;5.562;2023-11-21T13:45:24;40.63;;;20.90;;
59512;SDS011;45330;51.634;5.562;2023-11-21T13:47:52;39.30;;;19.52;;
59512;SDS011;45330;51.634;5.562;2023-11-21T13:50:27;36.83;;;19.52;;
59512;SDS011;45330;51.634;5.562;2023-11-21T13:53:01;38.60;;;18.88;;
59512;SDS011;45330;51.634;5.562;2023-11-21T13:55:43;37.33;;;17.13;;
59512;SDS011;45330;51.634;5.562;2023-11-21T13:58:10;37.10;;;18.65;;
59512;SDS011;45330;51.634;5.562;2023-11-21T14:00:41;35.42;;;17.38;;
59512;SDS011;45330;51.634;5.562;2023-11-21T14:03:09;36.42;;;18.27;;
59512;SDS011;45330;51.634;5.562;2023-11-21T14:05:43;32.22;;;16.35;;
59512;SDS011;45330;51.634;5.562;2023-11-21T14:08:12;32.63;;;16.05;;
59512;SDS011;45330;51.634;5.562;2023-11-21T14:10:41;33.63;;;14.98;;
59512;SDS011;45330;51.634;5.562;2023-11-21T14:13:14;31.30;;;15.40;;
59512;SDS011;45330;51.634;5.562;2023-11-21T14:15:41;29.98;;;13.93;;
59512;SDS011;45330;51.634;5.562;2023-11-21T14:18:10;27.27;;;13.35;;
59512;SDS011;45330;51.634;5.562;2023-11-21T14:20:39;29.52;;;13.60;;
59512;SDS011;45330;51.634;5.562;2023-11-21T14:23:06;29.25;;;13.30;;
59512;SDS011;45330;51.634;5.562;2023-11-21T14:25:35;26.42;;;11.77;;
59512;SDS011;45330;51.634;5.562;2023-11-21T14:28:07;24.48;;;10.60;;
59512;SDS011;45330;51.634;5.562;2023-11-21T14:30:32;23.17;;;10.52;;
59512;SDS011;45330;51.634;5.562;2023-11-21T14:33:00;24.20;;;10.75;;
59512;SDS011;45330;51.634;5.562;2023-11-21T14:35:26;23.10;;;9.77;;